createdAt,value
2024-02-16T00:03:11.446Z,8.70
2024-02-16T00:08:36.192Z,8.68
2024-02-16T00:13:59.521Z,8.68
2024-02-16T00:19:22.665Z,8.68
2024-02-16T00:24:46.357Z,8.70
2024-02-16T00:30:09.214Z,8.67
2024-02-16T00:35:34.171Z,8.67
2024-02-16T00:40:56.928Z,8.67
2024-02-16T00:46:28.959Z,8.65
2024-02-16T00:51:52.391Z,8.66
2024-02-16T00:57:15.846Z,8.62
2024-02-16T01:02:38.921Z,8.62
2024-02-16T01:08:01.754Z,8.59
2024-02-16T01:13:24.775Z,8.57
2024-02-16T01:18:48.705Z,8.56
2024-02-16T01:24:12.183Z,8.56
2024-02-16T01:29:35.002Z,8.54
2024-02-16T01:34:58.421Z,8.53
2024-02-16T01:40:22.227Z,8.53
2024-02-16T01:45:45.204Z,8.52
2024-02-16T01:51:08.433Z,8.54
2024-02-16T01:56:31.503Z,8.53
2024-02-16T02:01:54.072Z,8.53
2024-02-16T02:07:24.137Z,8.53
2024-02-16T02:12:47.153Z,8.53
2024-02-16T02:18:10.159Z,8.52
2024-02-16T02:23:32.727Z,8.50
2024-02-16T02:28:55.263Z,8.51
2024-02-16T02:34:17.828Z,8.51
2024-02-16T02:39:40.354Z,8.49
2024-02-16T02:45:02.875Z,8.49
2024-02-16T02:50:26.044Z,8.47
2024-02-16T02:55:48.698Z,8.47
2024-02-16T03:01:11.293Z,8.43
2024-02-16T03:06:36.256Z,8.40
2024-02-16T03:11:59.095Z,8.42
2024-02-16T03:17:21.580Z,8.41
2024-02-16T03:22:44.014Z,8.45
2024-02-16T03:28:06.769Z,8.46
2024-02-16T03:33:30.077Z,8.48
2024-02-16T03:38:55.077Z,8.47
2024-02-16T03:44:17.924Z,8.44
2024-02-16T03:49:40.598Z,8.42
2024-02-16T03:55:04.109Z,8.41
2024-02-16T04:00:27.152Z,8.37
2024-02-16T04:05:51.214Z,8.33
2024-02-16T04:11:14.895Z,8.32
2024-02-16T04:16:37.481Z,8.27
2024-02-16T04:22:00.898Z,8.26
2024-02-16T04:27:23.817Z,8.20
2024-02-16T04:32:46.638Z,8.18
2024-02-16T04:38:09.097Z,8.16
2024-02-16T04:43:32.304Z,8.13
2024-02-16T04:48:54.816Z,8.07
2024-02-16T04:54:17.446Z,8.06
2024-02-16T04:59:39.847Z,7.99
2024-02-16T05:05:04.572Z,7.94
2024-02-16T05:10:28.042Z,7.93
2024-02-16T05:15:50.575Z,7.90
2024-02-16T05:21:13.702Z,7.86
2024-02-16T05:26:36.678Z,7.82
2024-02-16T05:31:59.654Z,7.76
2024-02-16T05:37:23.768Z,7.76
2024-02-16T05:42:46.955Z,7.72
2024-02-16T05:48:12.110Z,7.71
2024-02-16T05:53:35.147Z,7.66
2024-02-16T05:58:57.788Z,7.56
2024-02-16T06:04:20.248Z,7.56
2024-02-16T06:09:45.942Z,7.54
2024-02-16T06:15:08.577Z,7.52
2024-02-16T06:20:31.322Z,7.51
2024-02-16T06:25:53.762Z,7.50
2024-02-16T06:31:16.558Z,7.49
2024-02-16T06:36:41.445Z,7.49
2024-02-16T06:42:03.219Z,7.45
2024-02-16T06:47:27.581Z,7.45
2024-02-16T06:52:50.512Z,7.41
2024-02-16T06:58:12.985Z,7.39
2024-02-16T07:03:37.246Z,7.32
2024-02-16T07:09:00.124Z,7.26
2024-02-16T07:14:22.580Z,7.21
2024-02-16T07:19:45.160Z,7.18
2024-02-16T07:25:09.228Z,7.13
2024-02-16T07:30:39.926Z,7.15
2024-02-16T07:35:56.975Z,7.15
2024-02-16T07:41:19.531Z,7.25
2024-02-16T07:46:43.655Z,7.38
2024-02-16T07:52:06.098Z,7.48
2024-02-16T07:57:28.601Z,7.55
2024-02-16T08:02:51.489Z,7.68
2024-02-16T08:08:14.126Z,7.77
2024-02-16T08:13:38.159Z,7.90
2024-02-16T08:19:02.610Z,7.95
2024-02-16T08:24:25.369Z,8.02
2024-02-16T08:29:48.049Z,8.08
2024-02-16T08:35:10.581Z,8.15
2024-02-16T08:40:33.412Z,8.26
2024-02-16T08:45:55.846Z,8.38
2024-02-16T08:51:18.359Z,8.43
2024-02-16T08:56:41.774Z,8.59
2024-02-16T09:02:04.490Z,8.80
2024-02-16T09:07:27.663Z,8.95
2024-02-16T09:12:50.157Z,9.04
2024-02-16T09:18:13.815Z,9.23
2024-02-16T09:23:36.547Z,9.32
2024-02-16T09:28:59.927Z,9.49
2024-02-16T09:34:23.153Z,9.72
2024-02-16T09:39:46.165Z,9.86
2024-02-16T09:45:11.084Z,9.94
2024-02-16T09:50:34.044Z,10.10
2024-02-16T09:55:58.297Z,10.20
2024-02-16T10:01:27.167Z,10.37
2024-02-16T10:07:00.223Z,10.44
2024-02-16T10:12:24.965Z,10.57
2024-02-16T10:17:48.670Z,10.79
2024-02-16T10:23:24.825Z,11.00
2024-02-16T10:28:49.426Z,11.07
2024-02-16T10:34:13.399Z,11.25
2024-02-16T10:39:37.431Z,11.41
2024-02-16T10:45:00.441Z,11.58
2024-02-16T10:50:23.378Z,11.88
2024-02-16T10:55:47.537Z,12.39
2024-02-16T11:01:16.912Z,12.76
2024-02-16T11:12:23.363Z,13.23
2024-02-16T11:17:46.284Z,13.38
2024-02-16T11:23:21.980Z,13.58
2024-02-16T11:28:49.986Z,13.76
2024-02-16T11:34:12.690Z,13.69
2024-02-16T11:45:13.906Z,14.10
2024-02-16T11:50:40.722Z,13.97
2024-02-16T11:56:06.790Z,13.93
2024-02-16T12:01:31.245Z,14.10
2024-02-16T12:06:55.036Z,13.96
2024-02-16T12:12:18.659Z,14.24
2024-02-16T12:17:41.219Z,14.37
2024-02-16T12:23:03.728Z,14.30
2024-02-16T12:28:29.453Z,14.56
2024-02-16T12:33:54.782Z,14.71
2024-02-16T12:39:18.357Z,14.97
2024-02-16T12:44:43.189Z,15.05
2024-02-16T12:50:08.035Z,14.78
2024-02-16T12:55:32.319Z,14.82
2024-02-16T13:00:55.950Z,14.51
2024-02-16T13:06:19.883Z,14.12
2024-02-16T13:11:43.678Z,13.90
2024-02-16T13:17:06.786Z,14.23
2024-02-16T13:22:30.301Z,14.71
2024-02-16T13:27:53.086Z,14.97
2024-02-16T13:33:15.891Z,14.96
2024-02-16T13:38:44.382Z,14.81
2024-02-16T13:44:07.197Z,14.42
2024-02-16T13:49:30.698Z,14.31
2024-02-16T13:54:53.110Z,14.57
2024-02-16T14:00:17.726Z,14.95
2024-02-16T14:05:58.454Z,15.14
2024-02-16T14:11:21.060Z,14.93
2024-02-16T14:16:43.549Z,14.91
2024-02-16T14:22:07.858Z,15.38
2024-02-16T14:27:31.241Z,15.29
2024-02-16T14:32:55.170Z,14.53
2024-02-16T14:38:18.856Z,13.85
2024-02-16T14:43:41.199Z,13.52
2024-02-16T14:49:03.892Z,13.42
2024-02-16T14:54:27.084Z,13.67
2024-02-16T14:59:50.568Z,13.55
2024-02-16T15:05:14.263Z,13.35
2024-02-16T15:10:37.024Z,13.19
2024-02-16T15:16:00.319Z,13.01
2024-02-16T15:21:22.852Z,12.79
2024-02-16T15:26:45.269Z,12.50
2024-02-16T15:32:07.736Z,12.26
2024-02-16T15:37:30.993Z,12.12
2024-02-16T15:43:11.297Z,11.98
2024-02-16T15:48:34.148Z,11.88
2024-02-16T15:53:56.926Z,11.78
2024-02-16T15:59:22.632Z,11.69
2024-02-16T16:04:47.838Z,11.59
2024-02-16T16:10:12.540Z,11.55
2024-02-16T16:15:35.459Z,11.47
2024-02-16T16:20:58.910Z,11.41
2024-02-16T16:26:25.922Z,11.38
2024-02-16T16:31:48.574Z,11.38
2024-02-16T16:37:11.236Z,11.34
2024-02-16T16:42:34.491Z,11.31
2024-02-16T16:47:58.419Z,11.32
2024-02-16T16:53:22.456Z,11.28
2024-02-16T16:58:46.451Z,11.26
2024-02-16T17:04:09.263Z,11.24
2024-02-16T17:09:33.127Z,11.21
2024-02-16T17:15:01.822Z,11.14
2024-02-16T17:20:30.145Z,11.13
2024-02-16T17:25:53.811Z,10.95
2024-02-16T17:31:16.284Z,10.99
2024-02-16T17:36:40.291Z,10.93
2024-02-16T17:42:22.708Z,10.89
2024-02-16T17:47:45.275Z,10.94
2024-02-16T17:53:07.809Z,10.93
2024-02-16T17:58:32.719Z,10.97
2024-02-16T18:03:55.698Z,11.04
2024-02-16T18:09:45.012Z,11.06
2024-02-16T18:15:08.814Z,11.09
2024-02-16T18:21:10.525Z,11.07
2024-02-16T18:26:56.171Z,11.06
2024-02-16T18:38:04.757Z,11.06
2024-02-16T18:43:27.462Z,11.07
2024-02-16T18:48:54.946Z,11.11
2024-02-16T18:54:31.753Z,11.13
2024-02-16T18:59:55.538Z,11.15
2024-02-16T19:05:19.007Z,11.19
2024-02-16T19:10:41.721Z,11.22
2024-02-16T19:16:05.833Z,11.23
2024-02-16T19:21:28.283Z,11.21
2024-02-16T19:26:50.729Z,11.17
2024-02-16T19:32:13.347Z,11.15
2024-02-16T19:37:35.755Z,11.12
2024-02-16T19:42:58.374Z,11.09
2024-02-16T19:48:20.924Z,11.10
2024-02-16T19:53:43.443Z,11.07
2024-02-16T19:59:05.991Z,11.07
2024-02-16T20:04:29.486Z,11.04
2024-02-16T20:09:52.333Z,11.03
2024-02-16T20:15:16.467Z,11.04
2024-02-16T20:20:38.974Z,11.05
2024-02-16T20:26:01.692Z,11.05
2024-02-16T20:31:25.892Z,11.05
2024-02-16T20:36:50.482Z,11.07
2024-02-16T20:42:23.053Z,11.19
2024-02-16T20:47:45.532Z,11.13
2024-02-16T20:53:07.964Z,11.11
2024-02-16T20:58:30.341Z,11.10
2024-02-16T21:03:52.943Z,11.10
2024-02-16T21:09:15.652Z,11.04
2024-02-16T21:30:48.282Z,11.13
2024-02-16T21:36:11.828Z,11.08
2024-02-16T21:41:34.347Z,11.15
2024-02-16T21:46:58.363Z,11.18
2024-02-16T21:52:20.744Z,11.23
2024-02-16T21:57:44.471Z,11.31
2024-02-16T22:03:07.920Z,11.32
2024-02-16T22:08:30.916Z,11.23
2024-02-16T22:13:54.143Z,11.13
2024-02-16T22:19:16.566Z,11.03
2024-02-16T22:24:40.984Z,10.98
2024-02-16T22:30:03.805Z,10.98
2024-02-16T22:35:26.480Z,10.98
2024-02-16T22:40:48.924Z,10.94
2024-02-16T22:46:11.526Z,10.92
2024-02-16T22:51:39.803Z,10.89
2024-02-16T22:56:58.038Z,10.85
2024-02-16T23:02:22.124Z,10.83
2024-02-16T23:07:44.610Z,10.79
2024-02-16T23:13:07.576Z,10.76
2024-02-16T23:18:30.594Z,10.73
2024-02-16T23:23:53.610Z,10.71
2024-02-16T23:29:17.734Z,10.68
2024-02-16T23:34:40.413Z,10.62
2024-02-16T23:40:04.645Z,10.59
2024-02-16T23:45:29.339Z,10.62
2024-02-16T23:50:51.834Z,10.60
2024-02-16T23:56:14.486Z,10.63
